sensor_id;sensor_type;location;lat;lon;timestamp;pressure;altitude;pressure_sealevel;temperature;humidity
50672;BME280;46021;55.882;37.654;2023-02-23T00:01:11;99432.53;;;-15.31;68.73
50672;BME280;46021;55.882;37.654;2023-02-23T00:03:38;99433.28;;;-15.32;69.06
50672;BME280;46021;55.882;37.654;2023-02-23T00:06:06;99440.31;;;-15.26;68.65
50672;BME280;46021;55.882;37.654;2023-02-23T00:08:35;99442.72;;;-15.27;68.70
50672;BME280;46021;55.882;37.654;2023-02-23T00:11:03;99445.56;;;-15.35;68.84
50672;BME280;46021;55.882;37.654;2023-02-23T00:13:31;99452.09;;;-15.37;69.02
50672;BME280;46021;55.882;37.654;2023-02-23T00:16:06;99455.16;;;-15.41;69.28
50672;BME280;46021;55.882;37.654;2023-02-23T00:18:34;99470.16;;;-15.41;68.87
50672;BME280;46021;55.882;37.654;2023-02-23T00:21:11;99462.25;;;-15.47;69.33
50672;BME280;46021;55.882;37.654;2023-02-23T00:23:42;99466.06;;;-15.52;69.58
50672;BME280;46021;55.882;37.654;2023-02-23T00:26:09;99451.81;;;-15.66;69.98
50672;BME280;46021;55.882;37.654;2023-02-23T00:28:40;99461.78;;;-15.66;69.89
50672;BME280;46021;55.882;37.654;2023-02-23T00:31:08;99464.34;;;-15.53;69.37
50672;BME280;46021;55.882;37.654;2023-02-23T00:33:37;99472.47;;;-15.56;70.00
50672;BME280;46021;55.882;37.654;2023-02-23T00:36:09;99479.13;;;-15.56;69.82
50672;BME280;46021;55.882;37.654;2023-02-23T00:38:36;99465.72;;;-15.70;69.72
50672;BME280;46021;55.882;37.654;2023-02-23T00:41:08;99477.84;;;-15.63;69.79
50672;BME280;46021;55.882;37.654;2023-02-23T00:43:36;99476.56;;;-15.70;69.61
50672;BME280;46021;55.882;37.654;2023-02-23T00:46:05;99483.50;;;-15.65;69.95
50672;BME280;46021;55.882;37.654;2023-02-23T00:48:32;99480.03;;;-15.67;69.58
50672;BME280;46021;55.882;37.654;2023-02-23T00:51:00;99485.31;;;-15.76;70.25
50672;BME280;46021;55.882;37.654;2023-02-23T00:53:27;99475.97;;;-15.79;70.32
50672;BME280;46021;55.882;37.654;2023-02-23T00:55:55;99475.78;;;-15.82;70.74
50672;BME280;46021;55.882;37.654;2023-02-23T00:58:24;99476.81;;;-15.78;70.23
50672;BME280;46021;55.882;37.654;2023-02-23T01:00:52;99487.69;;;-15.78;70.35
50672;BME280;46021;55.882;37.654;2023-02-23T01:03:20;99479.22;;;-15.92;70.63
50672;BME280;46021;55.882;37.654;2023-02-23T01:05:47;99488.03;;;-15.85;70.58
50672;BME280;46021;55.882;37.654;2023-02-23T01:08:16;99487.91;;;-15.86;70.75
50672;BME280;46021;55.882;37.654;2023-02-23T01:10:43;99481.84;;;-15.90;70.65
50672;BME280;46021;55.882;37.654;2023-02-23T01:13:17;99487.41;;;-15.94;70.88
50672;BME280;46021;55.882;37.654;2023-02-23T01:15:46;99490.44;;;-15.98;71.29
50672;BME280;46021;55.882;37.654;2023-02-23T01:18:14;99489.47;;;-16.00;71.18
50672;BME280;46021;55.882;37.654;2023-02-23T01:20:42;99488.50;;;-16.02;70.92
50672;BME280;46021;55.882;37.654;2023-02-23T01:23:10;99485.91;;;-16.04;71.14
50672;BME280;46021;55.882;37.654;2023-02-23T01:25:39;99488.16;;;-16.07;71.35
50672;BME280;46021;55.882;37.654;2023-02-23T01:28:07;99500.97;;;-16.02;70.90
50672;BME280;46021;55.882;37.654;2023-02-23T01:30:38;99501.19;;;-15.99;70.99
50672;BME280;46021;55.882;37.654;2023-02-23T01:33:08;99500.63;;;-15.95;70.85
50672;BME280;46021;55.882;37.654;2023-02-23T01:35:35;99501.19;;;-15.99;71.00
50672;BME280;46021;55.882;37.654;2023-02-23T01:38:03;99496.06;;;-16.01;71.33
50672;BME280;46021;55.882;37.654;2023-02-23T01:40:30;99495.75;;;-16.05;71.29
50672;BME280;46021;55.882;37.654;2023-02-23T01:43:11;99493.94;;;-16.08;71.38
50672;BME280;46021;55.882;37.654;2023-02-23T01:45:39;99489.91;;;-16.06;71.83
50672;BME280;46021;55.882;37.654;2023-02-23T01:48:11;99499.00;;;-16.06;71.64
50672;BME280;46021;55.882;37.654;2023-02-23T01:50:44;99499.13;;;-16.05;71.96
50672;BME280;46021;55.882;37.654;2023-02-23T01:53:15;99498.94;;;-16.08;71.91
50672;BME280;46021;55.882;37.654;2023-02-23T01:55:43;99503.38;;;-16.04;71.97
50672;BME280;46021;55.882;37.654;2023-02-23T01:58:15;99505.09;;;-16.03;72.05
50672;BME280;46021;55.882;37.654;2023-02-23T02:00:47;99507.28;;;-16.07;72.21
50672;BME280;46021;55.882;37.654;2023-02-23T02:03:18;99505.00;;;-16.04;71.68
50672;BME280;46021;55.882;37.654;2023-02-23T02:05:50;99511.72;;;-16.03;71.69
50672;BME280;46021;55.882;37.654;2023-02-23T02:08:17;99507.50;;;-16.04;71.53
50672;BME280;46021;55.882;37.654;2023-02-23T02:10:45;99510.75;;;-16.05;71.53
50672;BME280;46021;55.882;37.654;2023-02-23T02:13:19;99510.75;;;-16.05;71.93
50672;BME280;46021;55.882;37.654;2023-02-23T02:16:23;99514.88;;;-16.06;71.41
50672;BME280;46021;55.882;37.654;2023-02-23T02:19:11;99520.97;;;-16.02;71.26
50672;BME280;46021;55.882;37.654;2023-02-23T02:22:16;99523.97;;;-16.06;71.24
50672;BME280;46021;55.882;37.654;2023-02-23T02:28:23;99541.34;;;-16.20;71.71
50672;BME280;46021;55.882;37.654;2023-02-23T02:34:24;99538.66;;;-16.23;71.89
50672;BME280;46021;55.882;37.654;2023-02-23T02:37:19;99541.69;;;-16.27;71.94
50672;BME280;46021;55.882;37.654;2023-02-23T02:39:56;99545.59;;;-16.31;72.24
50672;BME280;46021;55.882;37.654;2023-02-23T02:42:49;99548.94;;;-16.30;72.40
50672;BME280;46021;55.882;37.654;2023-02-23T02:45:25;99543.94;;;-16.30;72.11
50672;BME280;46021;55.882;37.654;2023-02-23T02:47:59;99549.59;;;-16.33;72.54
50672;BME280;46021;55.882;37.654;2023-02-23T02:50:35;99553.94;;;-16.30;72.28
50672;BME280;46021;55.882;37.654;2023-02-23T02:53:09;99545.91;;;-16.26;71.70
50672;BME280;46021;55.882;37.654;2023-02-23T02:55:41;99551.56;;;-16.28;72.33
50672;BME280;46021;55.882;37.654;2023-02-23T02:58:11;99559.16;;;-16.27;72.14
50672;BME280;46021;55.882;37.654;2023-02-23T03:00:41;99554.66;;;-16.31;72.10
50672;BME280;46021;55.882;37.654;2023-02-23T03:03:30;99554.59;;;-16.33;71.91
50672;BME280;46021;55.882;37.654;2023-02-23T03:06:17;99551.31;;;-16.43;72.27
50672;BME280;46021;55.882;37.654;2023-02-23T03:09:12;99546.31;;;-16.43;72.50
50672;BME280;46021;55.882;37.654;2023-02-23T03:12:10;99553.94;;;-16.42;72.41
50672;BME280;46021;55.882;37.654;2023-02-23T03:15:03;99551.97;;;-16.46;72.21
50672;BME280;46021;55.882;37.654;2023-02-23T03:17:59;99561.84;;;-16.47;72.57
50672;BME280;46021;55.882;37.654;2023-02-23T03:20:51;99560.75;;;-16.51;72.62
50672;BME280;46021;55.882;37.654;2023-02-23T03:23:44;99555.44;;;-16.44;72.65
50672;BME280;46021;55.882;37.654;2023-02-23T03:26:39;99561.94;;;-16.46;72.12
50672;BME280;46021;55.882;37.654;2023-02-23T03:29:30;99566.72;;;-16.49;72.79
50672;BME280;46021;55.882;37.654;2023-02-23T03:32:23;99570.47;;;-16.54;72.59
50672;BME280;46021;55.882;37.654;2023-02-23T03:35:14;99577.34;;;-16.52;72.88
50672;BME280;46021;55.882;37.654;2023-02-23T03:38:07;99570.84;;;-16.50;72.29
50672;BME280;46021;55.882;37.654;2023-02-23T03:40:54;99574.16;;;-16.61;72.48
50672;BME280;46021;55.882;37.654;2023-02-23T03:43:45;99575.34;;;-16.56;72.26
50672;BME280;46021;55.882;37.654;2023-02-23T03:46:32;99575.16;;;-16.59;72.39
50672;BME280;46021;55.882;37.654;2023-02-23T03:49:19;99581.66;;;-16.61;72.50
50672;BME280;46021;55.882;37.654;2023-02-23T03:52:09;99582.28;;;-16.63;72.60
50672;BME280;46021;55.882;37.654;2023-02-23T03:54:59;99579.91;;;-16.62;72.61
50672;BME280;46021;55.882;37.654;2023-02-23T03:57:47;99588.25;;;-16.61;72.86
50672;BME280;46021;55.882;37.654;2023-02-23T04:00:35;99583.25;;;-16.61;72.48
50672;BME280;46021;55.882;37.654;2023-02-23T04:03:23;99580.75;;;-16.73;72.33
50672;BME280;46021;55.882;37.654;2023-02-23T04:06:11;99576.63;;;-16.84;72.67
50672;BME280;46021;55.882;37.654;2023-02-23T04:09:01;99593.09;;;-16.86;73.39
50672;BME280;46021;55.882;37.654;2023-02-23T04:11:51;99588.50;;;-16.92;72.88
50672;BME280;46021;55.882;37.654;2023-02-23T04:14:42;99581.03;;;-16.92;72.98
50672;BME280;46021;55.882;37.654;2023-02-23T04:17:13;99587.91;;;-16.90;73.25
50672;BME280;46021;55.882;37.654;2023-02-23T04:19:48;99592.41;;;-16.96;73.63
50672;BME280;46021;55.882;37.654;2023-02-23T04:22:15;99585.81;;;-16.95;73.21
50672;BME280;46021;55.882;37.654;2023-02-23T04:24:43;99586.44;;;-16.98;73.43
50672;BME280;46021;55.882;37.654;2023-02-23T04:27:10;99599.13;;;-16.95;73.53
50672;BME280;46021;55.882;37.654;2023-02-23T04:29:38;99596.75;;;-16.93;73.26
50672;BME280;46021;55.882;37.654;2023-02-23T04:32:06;99592.88;;;-16.90;73.48
50672;BME280;46021;55.882;37.654;2023-02-23T04:34:34;99597.38;;;-16.96;73.54
50672;BME280;46021;55.882;37.654;2023-02-23T04:37:01;99605.63;;;-16.97;73.39
50672;BME280;46021;55.882;37.654;2023-02-23T04:39:28;99603.06;;;-16.86;73.45
50672;BME280;46021;55.882;37.654;2023-02-23T04:41:55;99602.41;;;-16.84;73.53
50672;BME280;46021;55.882;37.654;2023-02-23T04:44:23;99609.22;;;-16.81;73.19
50672;BME280;46021;55.882;37.654;2023-02-23T04:46:50;99600.81;;;-16.83;73.45
50672;BME280;46021;55.882;37.654;2023-02-23T04:49:17;99600.56;;;-16.86;73.00
50672;BME280;46021;55.882;37.654;2023-02-23T04:51:45;99609.78;;;-16.85;73.34
50672;BME280;46021;55.882;37.654;2023-02-23T04:54:12;99609.44;;;-16.78;73.68
50672;BME280;46021;55.882;37.654;2023-02-23T04:56:39;99605.47;;;-16.76;73.73
50672;BME280;46021;55.882;37.654;2023-02-23T04:59:06;99618.38;;;-16.70;73.38
50672;BME280;46021;55.882;37.654;2023-02-23T05:01:33;99617.59;;;-16.69;73.57
50672;BME280;46021;55.882;37.654;2023-02-23T05:04:01;99614.41;;;-16.56;73.54
50672;BME280;46021;55.882;37.654;2023-02-23T05:06:29;99615.19;;;-16.57;73.37
50672;BME280;46021;55.882;37.654;2023-02-23T05:08:57;99605.97;;;-16.46;72.99
50672;BME280;46021;55.882;37.654;2023-02-23T05:11:25;99619.66;;;-16.30;73.18
50672;BME280;46021;55.882;37.654;2023-02-23T05:13:52;99616.03;;;-15.99;72.45
50672;BME280;46021;55.882;37.654;2023-02-23T05:16:19;99616.47;;;-15.81;71.93
50672;BME280;46021;55.882;37.654;2023-02-23T05:18:47;99617.34;;;-15.93;70.91
50672;BME280;46021;55.882;37.654;2023-02-23T05:21:14;99615.91;;;-16.01;71.37
50672;BME280;46021;55.882;37.654;2023-02-23T05:23:41;99622.34;;;-16.04;71.14
50672;BME280;46021;55.882;37.654;2023-02-23T05:26:11;99614.94;;;-16.03;71.25
50672;BME280;46021;55.882;37.654;2023-02-23T05:28:40;99616.34;;;-16.06;71.57
50672;BME280;46021;55.882;37.654;2023-02-23T05:31:08;99618.19;;;-16.16;71.60
50672;BME280;46021;55.882;37.654;2023-02-23T05:33:36;99619.72;;;-16.18;71.96
50672;BME280;46021;55.882;37.654;2023-02-23T05:36:08;99613.59;;;-16.33;71.96
50672;BME280;46021;55.882;37.654;2023-02-23T05:38:36;99622.03;;;-16.43;71.72
50672;BME280;46021;55.882;37.654;2023-02-23T05:41:04;99619.31;;;-16.46;71.93
50672;BME280;46021;55.882;37.654;2023-02-23T05:43:33;99619.41;;;-16.44;71.93
50672;BME280;46021;55.882;37.654;2023-02-23T05:46:00;99627.38;;;-16.38;72.36
50672;BME280;46021;55.882;37.654;2023-02-23T05:48:31;99625.75;;;-16.38;72.02
50672;BME280;46021;55.882;37.654;2023-02-23T05:51:00;99630.00;;;-16.25;71.83
50672;BME280;46021;55.882;37.654;2023-02-23T05:53:27;99632.81;;;-16.20;71.53
50672;BME280;46021;55.882;37.654;2023-02-23T05:55:54;99630.56;;;-16.17;71.43
50672;BME280;46021;55.882;37.654;2023-02-23T05:58:21;99632.94;;;-16.07;71.26
50672;BME280;46021;55.882;37.654;2023-02-23T06:00:50;99630.03;;;-16.01;71.52
50672;BME280;46021;55.882;37.654;2023-02-23T06:03:17;99632.44;;;-15.91;71.46
50672;BME280;46021;55.882;37.654;2023-02-23T06:05:48;99638.84;;;-15.83;70.99
50672;BME280;46021;55.882;37.654;2023-02-23T06:08:16;99636.22;;;-15.96;71.00
50672;BME280;46021;55.882;37.654;2023-02-23T06:10:43;99631.22;;;-15.96;71.24
50672;BME280;46021;55.882;37.654;2023-02-23T06:13:12;99632.94;;;-15.95;71.52
50672;BME280;46021;55.882;37.654;2023-02-23T06:15:39;99639.94;;;-15.91;71.31
50672;BME280;46021;55.882;37.654;2023-02-23T06:18:08;99635.44;;;-15.95;70.96
50672;BME280;46021;55.882;37.654;2023-02-23T06:20:36;99648.16;;;-15.68;70.86
50672;BME280;46021;55.882;37.654;2023-02-23T06:23:03;99641.41;;;-15.70;70.69
50672;BME280;46021;55.882;37.654;2023-02-23T06:25:32;99645.16;;;-15.76;70.81
50672;BME280;46021;55.882;37.654;2023-02-23T06:27:59;99652.84;;;-15.73;70.93
50672;BME280;46021;55.882;37.654;2023-02-23T06:30:26;99652.91;;;-15.60;70.90
50672;BME280;46021;55.882;37.654;2023-02-23T06:32:54;99645.31;;;-15.49;71.14
50672;BME280;46021;55.882;37.654;2023-02-23T06:35:23;99649.75;;;-15.34;70.76
50672;BME280;46021;55.882;37.654;2023-02-23T06:37:50;99650.50;;;-15.35;70.65
50672;BME280;46021;55.882;37.654;2023-02-23T06:40:18;99645.72;;;-15.32;70.06
50672;BME280;46021;55.882;37.654;2023-02-23T06:42:46;99643.63;;;-15.25;69.97
50672;BME280;46021;55.882;37.654;2023-02-23T06:45:13;99646.34;;;-15.11;69.64
50672;BME280;46021;55.882;37.654;2023-02-23T06:47:40;99634.06;;;-15.07;69.68
50672;BME280;46021;55.882;37.654;2023-02-23T06:50:09;99653.06;;;-14.98;69.79
50672;BME280;46021;55.882;37.654;2023-02-23T06:52:37;99650.63;;;-14.84;69.93
50672;BME280;46021;55.882;37.654;2023-02-23T06:55:06;99653.34;;;-14.81;70.08
50672;BME280;46021;55.882;37.654;2023-02-23T06:57:33;99655.56;;;-14.61;69.96
50672;BME280;46021;55.882;37.654;2023-02-23T07:00:01;99660.00;;;-14.43;69.67
50672;BME280;46021;55.882;37.654;2023-02-23T07:02:31;99659.84;;;-14.33;69.67
50672;BME280;46021;55.882;37.654;2023-02-23T07:04:59;99648.78;;;-14.23;69.44
50672;BME280;46021;55.882;37.654;2023-02-23T07:07:27;99661.44;;;-14.08;69.40
50672;BME280;46021;55.882;37.654;2023-02-23T07:09:55;99649.59;;;-14.11;69.21
50672;BME280;46021;55.882;37.654;2023-02-23T07:12:22;99666.97;;;-13.87;69.16
50672;BME280;46021;55.882;37.654;2023-02-23T07:14:49;99662.44;;;-13.80;68.82
50672;BME280;46021;55.882;37.654;2023-02-23T07:17:17;99667.66;;;-13.77;68.73
50672;BME280;46021;55.882;37.654;2023-02-23T07:19:44;99666.50;;;-13.82;68.58
50672;BME280;46021;55.882;37.654;2023-02-23T07:22:11;99646.66;;;-13.92;68.55
50672;BME280;46021;55.882;37.654;2023-02-23T07:24:38;99663.25;;;-13.67;68.83
50672;BME280;46021;55.882;37.654;2023-02-23T07:27:07;99674.06;;;-13.55;68.95
50672;BME280;46021;55.882;37.654;2023-02-23T07:29:34;99676.56;;;-13.42;68.26
50672;BME280;46021;55.882;37.654;2023-02-23T07:32:01;99675.16;;;-13.23;68.50
50672;BME280;46021;55.882;37.654;2023-02-23T07:34:28;99677.94;;;-13.05;68.37
50672;BME280;46021;55.882;37.654;2023-02-23T07:36:55;99672.44;;;-13.00;68.04
50672;BME280;46021;55.882;37.654;2023-02-23T07:39:22;99671.94;;;-12.94;67.88
50672;BME280;46021;55.882;37.654;2023-02-23T07:41:50;99677.22;;;-12.89;67.74
50672;BME280;46021;55.882;37.654;2023-02-23T07:44:19;99686.47;;;-12.75;67.23
50672;BME280;46021;55.882;37.654;2023-02-23T07:46:46;99681.22;;;-12.65;67.73
50672;BME280;46021;55.882;37.654;2023-02-23T07:49:14;99680.59;;;-12.47;68.11
50672;BME280;46021;55.882;37.654;2023-02-23T07:51:41;99674.19;;;-12.42;67.75
50672;BME280;46021;55.882;37.654;2023-02-23T07:54:08;99666.06;;;-12.38;67.58
50672;BME280;46021;55.882;37.654;2023-02-23T07:56:35;99681.53;;;-12.02;67.07
50672;BME280;46021;55.882;37.654;2023-02-23T07:59:02;99685.59;;;-11.74;67.59
50672;BME280;46021;55.882;37.654;2023-02-23T08:01:31;99670.09;;;-11.67;66.83
50672;BME280;46021;55.882;37.654;2023-02-23T08:03:58;99672.16;;;-11.60;65.82
50672;BME280;46021;55.882;37.654;2023-02-23T08:06:26;99678.06;;;-11.60;66.08
50672;BME280;46021;55.882;37.654;2023-02-23T08:08:53;99673.78;;;-11.46;65.97
50672;BME280;46021;55.882;37.654;2023-02-23T08:11:20;99660.69;;;-11.55;65.82
50672;BME280;46021;55.882;37.654;2023-02-23T08:13:47;99657.91;;;-11.45;65.76
50672;BME280;46021;55.882;37.654;2023-02-23T08:16:14;99649.03;;;-11.38;65.03
50672;BME280;46021;55.882;37.654;2023-02-23T08:18:44;99667.44;;;-11.24;65.36
50672;BME280;46021;55.882;37.654;2023-02-23T08:21:11;99671.63;;;-11.08;64.77
50672;BME280;46021;55.882;37.654;2023-02-23T08:23:38;99658.16;;;-10.94;65.61
50672;BME280;46021;55.882;37.654;2023-02-23T08:26:05;99662.63;;;-10.88;64.71
50672;BME280;46021;55.882;37.654;2023-02-23T08:28:32;99666.91;;;-10.71;64.25
50672;BME280;46021;55.882;37.654;2023-02-23T08:31:00;99672.25;;;-10.65;64.43
50672;BME280;46021;55.882;37.654;2023-02-23T08:33:27;99660.47;;;-10.66;64.81
50672;BME280;46021;55.882;37.654;2023-02-23T08:35:58;99670.13;;;-10.57;64.29
50672;BME280;46021;55.882;37.654;2023-02-23T08:38:28;99678.16;;;-10.31;64.59
50672;BME280;46021;55.882;37.654;2023-02-23T08:40:58;99664.34;;;-10.22;64.52
50672;BME280;46021;55.882;37.654;2023-02-23T08:43:26;99673.91;;;-9.98;64.44
50672;BME280;46021;55.882;37.654;2023-02-23T08:45:53;99677.97;;;-10.02;63.39
50672;BME280;46021;55.882;37.654;2023-02-23T08:48:20;99679.41;;;-9.89;64.05
50672;BME280;46021;55.882;37.654;2023-02-23T08:50:49;99668.56;;;-9.70;63.89
50672;BME280;46021;55.882;37.654;2023-02-23T08:53:18;99668.00;;;-9.64;63.23
50672;BME280;46021;55.882;37.654;2023-02-23T08:55:45;99665.19;;;-9.70;62.96
50672;BME280;46021;55.882;37.654;2023-02-23T08:58:12;99672.41;;;-9.60;62.90
50672;BME280;46021;55.882;37.654;2023-02-23T09:00:39;99676.03;;;-9.19;64.62
50672;BME280;46021;55.882;37.654;2023-02-23T09:03:06;99662.75;;;-7.36;64.77
50672;BME280;46021;55.882;37.654;2023-02-23T09:05:35;99662.22;;;-4.79;62.24
50672;BME280;46021;55.882;37.654;2023-02-23T09:08:03;99658.53;;;-2.08;62.04
50672;BME280;46021;55.882;37.654;2023-02-23T09:10:33;99650.47;;;0.04;56.34
50672;BME280;46021;55.882;37.654;2023-02-23T09:13:00;99651.53;;;1.50;49.75
50672;BME280;46021;55.882;37.654;2023-02-23T09:15:27;99649.91;;;3.40;52.20
50672;BME280;46021;55.882;37.654;2023-02-23T09:17:59;99638.06;;;4.61;46.64
50672;BME280;46021;55.882;37.654;2023-02-23T09:20:26;99634.34;;;5.68;45.31
50672;BME280;46021;55.882;37.654;2023-02-23T09:22:53;99636.06;;;6.34;42.71
50672;BME280;46021;55.882;37.654;2023-02-23T09:25:22;99630.97;;;6.28;39.03
50672;BME280;46021;55.882;37.654;2023-02-23T09:27:52;99634.13;;;6.98;38.87
50672;BME280;46021;55.882;37.654;2023-02-23T09:30:21;99625.50;;;7.42;39.53
50672;BME280;46021;55.882;37.654;2023-02-23T09:32:49;99612.09;;;7.64;36.68
50672;BME280;46021;55.882;37.654;2023-02-23T09:35:18;99628.78;;;7.93;39.32
50672;BME280;46021;55.882;37.654;2023-02-23T09:37:46;99620.81;;;6.70;35.55
50672;BME280;46021;55.882;37.654;2023-02-23T09:40:16;99626.69;;;5.61;33.33
50672;BME280;46021;55.882;37.654;2023-02-23T09:42:52;99619.78;;;4.81;32.03
50672;BME280;46021;55.882;37.654;2023-02-23T09:45:32;99613.44;;;4.16;34.38
50672;BME280;46021;55.882;37.654;2023-02-23T09:48:10;99629.28;;;4.78;36.12
50672;BME280;46021;55.882;37.654;2023-02-23T09:50:41;99622.50;;;4.64;35.23
50672;BME280;46021;55.882;37.654;2023-02-23T09:53:20;99616.84;;;5.17;33.52
50672;BME280;46021;55.882;37.654;2023-02-23T09:55:50;99622.22;;;6.35;37.53
50672;BME280;46021;55.882;37.654;2023-02-23T09:58:23;99619.91;;;5.48;32.31
50672;BME280;46021;55.882;37.654;2023-02-23T10:01:08;99614.06;;;4.50;30.49
50672;BME280;46021;55.882;37.654;2023-02-23T10:03:40;99623.00;;;4.01;35.31
50672;BME280;46021;55.882;37.654;2023-02-23T10:06:17;99604.09;;;3.95;32.88
50672;BME280;46021;55.882;37.654;2023-02-23T10:08:54;99633.59;;;3.41;32.03
50672;BME280;46021;55.882;37.654;2023-02-23T10:11:27;99620.84;;;2.00;32.52
50672;BME280;46021;55.882;37.654;2023-02-23T10:14:20;99613.94;;;1.72;32.89
50672;BME280;46021;55.882;37.654;2023-02-23T10:17:00;99629.38;;;3.22;33.85
50672;BME280;46021;55.882;37.654;2023-02-23T10:19:36;99628.19;;;3.94;33.92
50672;BME280;46021;55.882;37.654;2023-02-23T10:22:10;99629.09;;;4.99;32.79
50672;BME280;46021;55.882;37.654;2023-02-23T10:24:41;99612.41;;;4.40;30.67
50672;BME280;46021;55.882;37.654;2023-02-23T10:27:16;99619.81;;;3.45;31.52
50672;BME280;46021;55.882;37.654;2023-02-23T10:29:48;99617.47;;;2.39;32.27
50672;BME280;46021;55.882;37.654;2023-02-23T10:32:20;99614.00;;;2.34;32.94
50672;BME280;46021;55.882;37.654;2023-02-23T10:34:52;99620.00;;;2.62;33.44
50672;BME280;46021;55.882;37.654;2023-02-23T10:37:22;99623.44;;;2.12;33.10
50672;BME280;46021;55.882;37.654;2023-02-23T10:39:50;99624.25;;;1.89;32.71
50672;BME280;46021;55.882;37.654;2023-02-23T10:42:20;99623.44;;;2.17;33.40
50672;BME280;46021;55.882;37.654;2023-02-23T10:44:50;99615.72;;;2.40;33.52
50672;BME280;46021;55.882;37.654;2023-02-23T10:47:20;99618.31;;;2.46;33.00
50672;BME280;46021;55.882;37.654;2023-02-23T10:49:51;99607.16;;;2.45;32.29
50672;BME280;46021;55.882;37.654;2023-02-23T10:52:21;99607.03;;;1.61;32.74
50672;BME280;46021;55.882;37.654;2023-02-23T10:54:50;99609.16;;;0.73;34.49
50672;BME280;46021;55.882;37.654;2023-02-23T10:57:21;99610.47;;;1.72;34.38
50672;BME280;46021;55.882;37.654;2023-02-23T11:02:52;99601.06;;;1.65;33.20
50672;BME280;46021;55.882;37.654;2023-02-23T11:05:35;99614.66;;;1.39;32.60
50672;BME280;46021;55.882;37.654;2023-02-23T11:08:16;99590.50;;;0.97;31.84
50672;BME280;46021;55.882;37.654;2023-02-23T11:10:58;99596.75;;;1.56;31.91
50672;BME280;46021;55.882;37.654;2023-02-23T11:13:27;99589.16;;;2.44;32.78
50672;BME280;46021;55.882;37.654;2023-02-23T11:16:05;99595.84;;;3.25;30.84
50672;BME280;46021;55.882;37.654;2023-02-23T11:18:35;99597.59;;;3.23;30.37
50672;BME280;46021;55.882;37.654;2023-02-23T11:21:08;99596.75;;;1.64;31.52
50672;BME280;46021;55.882;37.654;2023-02-23T11:23:38;99603.56;;;1.48;32.59
50672;BME280;46021;55.882;37.654;2023-02-23T11:26:20;99595.16;;;2.09;31.75
50672;BME280;46021;55.882;37.654;2023-02-23T11:28:52;99610.56;;;2.73;31.33
50672;BME280;46021;55.882;37.654;2023-02-23T11:31:26;99604.50;;;3.15;30.77
50672;BME280;46021;55.882;37.654;2023-02-23T11:33:56;99615.22;;;4.07;30.88
50672;BME280;46021;55.882;37.654;2023-02-23T11:36:28;99599.72;;;4.12;29.90
50672;BME280;46021;55.882;37.654;2023-02-23T11:39:04;99610.97;;;3.99;30.07
50672;BME280;46021;55.882;37.654;2023-02-23T11:41:32;99607.13;;;2.90;30.16
50672;BME280;46021;55.882;37.654;2023-02-23T11:44:00;99606.31;;;2.39;31.03
50672;BME280;46021;55.882;37.654;2023-02-23T11:46:33;99597.72;;;2.40;30.83
50672;BME280;46021;55.882;37.654;2023-02-23T11:49:03;99599.44;;;2.13;31.17
50672;BME280;46021;55.882;37.654;2023-02-23T11:51:34;99598.59;;;2.12;31.47
50672;BME280;46021;55.882;37.654;2023-02-23T11:54:03;99596.84;;;2.27;31.27
50672;BME280;46021;55.882;37.654;2023-02-23T11:56:32;99593.38;;;1.74;31.71
50672;BME280;46021;55.882;37.654;2023-02-23T11:59:02;99582.25;;;1.84;31.68
50672;BME280;46021;55.882;37.654;2023-02-23T12:01:42;99594.59;;;0.67;31.79
50672;BME280;46021;55.882;37.654;2023-02-23T12:04:25;99582.78;;;0.91;31.99
50672;BME280;46021;55.882;37.654;2023-02-23T12:07:20;99584.06;;;0.29;31.85
50672;BME280;46021;55.882;37.654;2023-02-23T12:09:58;99589.53;;;-0.26;32.79
50672;BME280;46021;55.882;37.654;2023-02-23T12:12:28;99582.91;;;-0.06;32.89
50672;BME280;46021;55.882;37.654;2023-02-23T12:15:01;99584.91;;;0.29;32.63
50672;BME280;46021;55.882;37.654;2023-02-23T12:17:40;99577.25;;;-0.55;32.41
50672;BME280;46021;55.882;37.654;2023-02-23T12:20:13;99583.38;;;-0.45;33.82
50672;BME280;46021;55.882;37.654;2023-02-23T12:22:45;99588.75;;;-0.17;33.13
50672;BME280;46021;55.882;37.654;2023-02-23T12:25:19;99593.91;;;-0.16;32.58
50672;BME280;46021;55.882;37.654;2023-02-23T12:27:54;99598.00;;;-0.30;34.38
50672;BME280;46021;55.882;37.654;2023-02-23T12:30:27;99594.09;;;-1.37;34.32
50672;BME280;46021;55.882;37.654;2023-02-23T12:33:01;99604.09;;;-0.94;33.68
50672;BME280;46021;55.882;37.654;2023-02-23T12:35:40;99600.91;;;-0.74;33.99
50672;BME280;46021;55.882;37.654;2023-02-23T12:38:14;99594.22;;;-0.63;33.88
50672;BME280;46021;55.882;37.654;2023-02-23T12:40:46;99598.16;;;-0.18;34.62
50672;BME280;46021;55.882;37.654;2023-02-23T12:43:16;99586.44;;;0.09;33.13
50672;BME280;46021;55.882;37.654;2023-02-23T12:45:49;99604.53;;;-0.57;34.38
50672;BME280;46021;55.882;37.654;2023-02-23T12:48:29;99607.66;;;-0.80;33.60
50672;BME280;46021;55.882;37.654;2023-02-23T12:51:00;99607.09;;;-1.24;34.24
50672;BME280;46021;55.882;37.654;2023-02-23T12:53:36;99611.69;;;-2.08;35.04
50672;BME280;46021;55.882;37.654;2023-02-23T12:56:15;99601.47;;;-2.54;36.35
50672;BME280;46021;55.882;37.654;2023-02-23T12:58:50;99605.19;;;-2.37;36.10
50672;BME280;46021;55.882;37.654;2023-02-23T13:01:27;99600.06;;;-2.40;36.21
50672;BME280;46021;55.882;37.654;2023-02-23T13:04:13;99593.16;;;-3.26;36.76
50672;BME280;46021;55.882;37.654;2023-02-23T13:06:53;99610.91;;;-3.67;38.36
50672;BME280;46021;55.882;37.654;2023-02-23T13:09:31;99605.47;;;-4.16;38.34
50672;BME280;46021;55.882;37.654;2023-02-23T13:12:21;99599.44;;;-4.19;39.17
50672;BME280;46021;55.882;37.654;2023-02-23T13:14:57;99606.28;;;-3.83;39.33
50672;BME280;46021;55.882;37.654;2023-02-23T13:17:34;99596.19;;;-3.79;38.73
50672;BME280;46021;55.882;37.654;2023-02-23T13:20:11;99603.50;;;-3.93;39.47
50672;BME280;46021;55.882;37.654;2023-02-23T13:22:45;99604.28;;;-4.28;39.89